Flight Track Log - Related Links

Times and Time Zones

All times are in EDT time to prevent confusion due to time zone crossing. See the EJM918 flight status page for this flight to view local times or setup timezone preferences in your user account.

Time Position Orientation Groundspeed Altitude Reporting Facility
EDT Latitude Longitude Course Direction KTS MPH feet Rate Location/Type
Mon 09:05:13 AM 48.9615 3.4156 325° Northwest 1 1 43,000  Level FlightAware UK
Mon 09:05:49 AM 49.0279 3.3438 325° Northwest 1 1 43,000  Level FlightAware UK
Mon 09:06:55 AM 49.1524 3.2269 328° Northwest 1 1 43,000  Level FlightAware UK
Mon 09:08:19 AM 49.3118 3.0781 329° Northwest 1 1 43,000  Level FlightAware UK
Mon 09:08:49 AM 49.3683 3.0232 328° Northwest 1 1 43,000  Level FlightAware UK
Mon 09:09:25 AM 49.4360 2.9579 328° Northwest 1 1 43,000  Level FlightAware UK
Mon 09:10:01 AM 49.5030 2.8911 327° Northwest 1 1 43,000  Level FlightAware UK
Mon 09:10:31 AM 49.5601 2.8373 329° Northwest 1 1 43,000  Level FlightAware UK
Mon 09:11:07 AM 49.6289 2.7708 328° Northwest 1 1 43,000  Level FlightAware UK
Mon 09:11:55 AM 49.7201 2.6815 328° Northwest 482 555 43,000  Level FlightAware UK
Mon 09:12:31 AM 49.7882 2.6137 327° Northwest 480 552 43,000  Level FlightAware UK
Mon 09:13:01 AM 49.8446 2.5581 328° Northwest 480 552 43,000  Level FlightAware UK
Mon 09:13:31 AM 49.9006 2.5019 327° Northwest 482 555 43,000  Level FlightAware UK
Mon 09:14:01 AM 49.9572 2.4454 327° Northwest 480 552 43,000  Level FlightAware UK
Mon 09:15:01 AM 50.0706 2.3319 327° Northwest 482 555 43,000  Level FlightAware UK
Mon 09:15:31 AM 50.1277 2.2740 327° Northwest 482 555 43,000  Level FlightAware UK
Mon 09:16:13 AM 50.2075 2.1932 327° Northwest 482 555 43,000  Level FlightAware UK
Mon 09:16:43 AM 50.2647 2.1354 327° Northwest 480 552 43,000  Level FlightAware UK
Mon 09:17:13 AM 50.3214 2.0773 327° Northwest 480 552 43,000  Level FlightAware UK
Mon 09:17:55 AM 50.3966 1.9890 323° Northwest 478 550 43,000  Level FlightAware UK
Mon 09:18:31 AM 50.4577 1.9068 319° Northwest 480 552 43,000  Level FlightAware UK
Mon 09:19:01 AM 50.5093 1.8383 320° Northwest 480 552 43,000  Level FlightAware UK
Mon 09:20:01 AM 50.5968 1.6799 311° West 484 557 43,000  Level FlightAware UK
Mon 09:20:49 AM 50.6456 1.5320 298° West 484 557 43,000  Level FlightAware UK
Mon 09:21:42 AM 50.6993 1.3659 297° West 486 559 43,000  Level FlightAware UK
Mon 09:22:12 AM 50.7289 1.2739 297° West 482 555 43,000  Level FlightAware UK
Mon 09:22:48 AM 50.7645 1.1643 297° West 484 557 43,000  Level FlightAware UK
Mon 09:23:36 AM 50.8111 1.0183 297° West 486 559 43,000  Level FlightAware UK
Mon 09:24:12 AM 50.8460 0.9077 297° West 488 562 43,000  Level FlightAware UK
Mon 09:24:54 AM 50.8868 0.7791 297° West 482 555 43,000  Level FlightAware UK
Mon 09:26:00 AM 50.9498 0.5783 297° West 484 557 43,000  Level FlightAware UK
Mon 09:26:30 AM 50.9785 0.4870 297° West 484 557 43,000  Level FlightAware UK
Mon 09:27:30 AM 51.0354 0.3041 296° West 488 562 43,000  Level FlightAware UK
Mon 09:28:18 AM 51.0808 0.1567 296° West 484 557 43,000  Level FlightAware UK
Mon 09:28:48 AM 51.1090 0.0643 296° West 486 559 43,000  Level FlightAware UK
Mon 09:29:54 AM 51.1708 -0.1381 296° West 482 555 43,000  Level FlightAware UK
Mon 09:30:24 AM 51.1988 -0.2305 296° West 486 559 43,000  Level FlightAware UK
Mon 09:31:11 AM 51.2434 -0.3791 296° West 486 559 43,000  Level FlightAware UK
Mon 09:31:41 AM 51.2714 -0.4719 296° West 486 559 43,000  Level FlightAware UK
Mon 09:32:11 AM 51.2992 -0.5649 296° West 484 557 43,000  Level FlightAware UK
Mon 09:32:41 AM 51.3271 -0.6586 295° West 486 559 43,000  Level FlightAware UK
Mon 09:33:17 AM 51.3606 -0.7714 295° West 488 562 43,000  Level FlightAware UK
Mon 09:33:59 AM 51.3993 -0.9021 295° West 486 559 43,000  Level FlightAware UK
Mon 09:35:05 AM 51.4593 -1.1073 295° West 484 557 43,000  Level FlightAware UK
Mon 09:35:47 AM 51.4932 -1.2401 292° West 484 557 43,000  Level FlightAware UK
Mon 09:36:29 AM 51.5155 -1.3797 284° West 488 562 43,000  Level FlightAware UK
Mon 09:36:59 AM 51.5306 -1.4800 284° West 488 562 43,000  Level FlightAware UK
Mon 09:37:41 AM 51.5510 -1.6200 283° West 488 562 43,000  Level FlightAware UK
Mon 09:38:23 AM 51.5713 -1.7606 283° West 486 559 43,000  Level FlightAware UK
Mon 09:38:53 AM 51.5859 -1.8610 283° West 488 562 43,000  Level FlightAware UK
Mon 09:39:28 AM 51.6029 -1.9810 283° West 486 559 43,000  Level FlightAware UK
Mon 09:40:34 AM 51.6344 -2.2016 283° West 490 564 43,000  Level FlightAware UK
Mon 09:41:10 AM 51.6511 -2.3221 283° West 486 559 43,000  Level FlightAware UK
Mon 09:42:16 AM 51.6810 -2.5405 283° West 486 559 43,000  Level FlightAware UK
Mon 09:43:40 AM 51.7194 -2.8228 282° West 494 568 43,000  Level FlightAware UK
Mon 09:44:16 AM 51.7358 -2.9448 282° West 488 562 43,000  Level FlightAware UK
Mon 09:45:04 AM 51.7570 -3.1062 282° West 490 564 43,000  Level FlightAware UK
Mon 09:45:45 AM 51.7756 -3.2478 282° West 488 562 43,000  Level FlightAware UK
Mon 09:46:15 AM 51.7890 -3.3497 282° West 490 564 43,000  Level FlightAware UK
Mon 09:46:45 AM 51.8023 -3.4515 282° West 490 564 43,000  Level FlightAware UK
Mon 09:47:21 AM 51.8178 -3.5729 282° West 488 562 43,000  Level FlightAware UK
Mon 09:48:09 AM 51.8384 -3.7351 282° West 488 562 43,000  Level FlightAware UK
Mon 09:48:39 AM 51.8509 -3.8366 281° West 486 559 43,000  Level FlightAware UK
Mon 09:49:09 AM 51.8635 -3.9382 281° West 486 559 43,000  Level FlightAware UK
Mon 09:50:03 AM 51.8861 -4.1222 281° West 488 562 43,000  Level FlightAware UK
Mon 09:50:39 AM 51.9012 -4.2462 281° West 492 566 43,000  Level FlightAware UK
Mon 09:51:15 AM 51.9161 -4.3703 281° West 492 566 43,000  Level FlightAware UK
Mon 09:52:03 AM 51.9361 -4.5356 281° West 486 559 43,000  Level FlightAware UK
Mon 09:52:33 AM 51.9484 -4.6384 281° West 488 562 43,000  Level FlightAware UK
Mon 09:53:03 AM 51.9605 -4.7411 281° West 490 564 43,000  Level FlightAware UK
Mon 09:53:33 AM 51.9723 -4.8440 281° West 490 564 43,000  Level FlightAware UK
Mon 09:54:21 AM 51.9921 -5.0066 281° West 486 559 43,000  Level FlightAware UK
Mon 09:54:51 AM 52.0195 -5.1010 295° West 484 557 43,000  Level FlightAware UK
Mon 09:55:33 AM 52.0677 -5.2257 302° West 486 559 43,000  Level FlightAware UK
Mon 09:56:03 AM 52.1026 -5.3157 302° West 490 564 43,000  Level FlightAware UK
Mon 09:56:33 AM 52.1391 -5.4044 304° West 488 562 43,000  Level FlightAware UK
Mon 09:57:09 AM 52.1868 -5.5069 307° West 490 564 43,000  Level FlightAware UK
Mon 09:57:45 AM 52.2354 -5.6094 308° West 488 562 43,000  Level FlightAware UK
Mon 09:58:21 AM 52.2838 -5.7113 308° West 488 562 43,000  Level FlightAware UK
Mon 09:58:51 AM 52.3244 -5.7959 308° West 488 562 43,000  Level FlightAware UK
Mon 09:59:21 AM 52.3649 -5.8808 308° West 488 562 43,000  Level FlightAware UK
Mon 09:59:51 AM 52.4055 -5.9659 308° West 490 564 43,000  Level FlightAware UK
Mon 10:00:33 AM 52.4618 -6.0851 308° West 490 564 43,000  Level FlightAware UK
Mon 10:01:03 AM 52.5021 -6.1711 308° West 490 564 43,000  Level FlightAware UK
Mon 10:01:33 AM 52.5425 -6.2572 308° West 492 566 43,000  Level FlightAware UK
Mon 10:02:03 AM 52.5827 -6.3433 308° West 490 564 43,000  Level FlightAware UK
Mon 10:02:33 AM 52.6227 -6.4292 307° West 488 562 43,000  Level FlightAware UK
Mon 10:03:03 AM 52.6625 -6.5151 307° West 486 559 43,000  Level FlightAware UK
Mon 10:03:33 AM 52.7024 -6.6011 307° West 490 564 43,000  Level FlightAware UK
Mon 10:04:03 AM 52.7424 -6.6876 307° West 492 566 43,000  Level FlightAware UK
Mon 10:04:45 AM 52.7985 -6.8095 307° West 492 566 43,000  Level FlightAware UK
Mon 10:05:15 AM 52.8384 -6.8967 307° West 488 562 43,000  Level FlightAware UK
Mon 10:05:45 AM 52.8779 -6.9836 307° West 488 562 43,000  Level FlightAware UK
Mon 10:06:15 AM 52.9172 -7.0702 307° West 488 562 43,000  Level FlightAware UK
Mon 10:06:45 AM 52.9563 -7.1566 307° West 488 562 43,000  Level FlightAware UK
Mon 10:07:20 AM 53.0033 -7.2600 307° West 490 564 43,000  Level FlightAware UK
Mon 10:07:50 AM 53.0425 -7.3475 307° West 492 566 43,000  Level FlightAware UK
Mon 10:08:20 AM 53.0817 -7.4354 307° West 490 564 43,000  Level FlightAware UK
Mon 10:08:50 AM 53.1210 -7.5234 307° West 488 562 43,000  Level FlightAware UK
Mon 10:09:20 AM 53.1603 -7.6117 307° West 488 562 43,000  Level FlightAware UK
Mon 10:09:50 AM 53.1996 -7.7001 307° West 492 566 43,000  Level FlightAware UK
Mon 10:10:20 AM 53.2388 -7.7890 306° West 490 564 43,000  Level FlightAware UK
Mon 10:10:50 AM 53.2778 -7.8781 306° West 492 566 43,000  Level FlightAware UK
Mon 10:11:20 AM 53.3168 -7.9670 306° West 486 559 43,000  Level FlightAware UK
Mon 10:11:50 AM 53.3557 -8.0560 306° West 490 564 43,000  Level FlightAware UK
Mon 10:12:20 AM 53.3947 -8.1452 306° West 492 566 43,000  Level FlightAware UK
Mon 10:12:50 AM 53.4336 -8.2348 306° West 492 566 43,000  Level FlightAware UK
Mon 10:13:20 AM 53.4724 -8.3247 306° West 490 564 43,000  Level FlightAware UK
Mon 10:13:50 AM 53.5111 -8.4145 306° West 488 562 43,000  Level FlightAware UK
Mon 10:14:26 AM 53.5570 -8.5215 306° West 492 566 43,000  Level FlightAware UK
Mon 10:14:56 AM 53.5956 -8.6112 306° West 492 566 43,000  Level FlightAware UK
Mon 10:15:26 AM 53.6338 -8.7008 306° West 488 562 43,000  Level FlightAware UK
Mon 10:15:56 AM 53.6716 -8.7903 306° West 488 562 43,000  Level FlightAware UK
Mon 10:16:26 AM 53.7093 -8.8795 306° West 488 562 43,000  Level FlightAware UK
Mon 10:16:56 AM 53.7471 -8.9695 305° West 490 564 43,000  Level FlightAware UK
Mon 10:18:00 AM 53.7710 -9.1794 281° West  Level Estimated
Mon 10:25:00 AM 53.9188 -10.5623 281° West  Level Estimated
Mon 10:26:00 AM 53.9386 -10.7606 280° West  Level Estimated
Mon 10:27:00 AM 53.9581 -10.9592 280° West  Level Estimated
Mon 10:28:00 AM 53.9773 -11.1579 279° West  Level Estimated
Mon 10:29:00 AM 53.9961 -11.3568 279° West  Level Estimated
Mon 10:30:00 AM 54.0146 -11.5558 279° West  Level Estimated
Mon 10:31:00 AM 54.0328 -11.7551 279° West  Level Estimated
Mon 10:32:00 AM 54.0506 -11.9545 279° West  Level Estimated
Mon 10:33:00 AM 54.0681 -12.1541 279° West  Level Estimated
Mon 10:34:00 AM 54.0853 -12.3539 278° West  Level Estimated
Mon 10:35:00 AM 54.1022 -12.5538 278° West  Level Estimated
Mon 10:36:00 AM 54.1187 -12.7538 278° West  Level Estimated
Mon 10:37:00 AM 54.1349 -12.9541 278° West  Level Estimated
Mon 10:38:00 AM 54.1507 -13.1545 278° West  Level Estimated
Mon 10:39:00 AM 54.1663 -13.3550 278° West  Level Estimated
Mon 10:40:00 AM 54.1814 -13.5557 277° West  Level Estimated
Mon 10:41:00 AM 54.1963 -13.7566 277° West  Level Estimated
Mon 10:42:00 AM 54.2108 -13.9576 277° West  Level Estimated
Mon 10:43:00 AM 54.2250 -14.1587 277° West  Level Estimated
Mon 10:44:00 AM 54.2388 -14.3599 277° West  Level Estimated
Mon 10:45:00 AM 54.2524 -14.5613 277° West  Level Estimated
Mon 10:46:00 AM 54.2655 -14.7628 276° West  Level Estimated
Mon 10:47:00 AM 54.2784 -14.9645 276° West  Level Estimated
Mon 10:48:00 AM 54.2909 -15.1663 276° West  Level Estimated
Mon 10:49:00 AM 54.3031 -15.3682 276° West  Level Estimated
Mon 10:50:00 AM 54.3149 -15.5702 276° West  Level Estimated
Mon 10:51:00 AM 54.3264 -15.7723 276° West  Level Estimated
Mon 10:52:00 AM 54.3375 -15.9746 275° West  Level Estimated
Mon 10:53:00 AM 54.3484 -16.1769 275° West  Level Estimated
Mon 10:54:00 AM 54.3588 -16.3794 275° West  Level Estimated
Mon 10:55:00 AM 54.3690 -16.5819 275° West  Level Estimated
Mon 10:56:00 AM 54.3788 -16.7845 275° West  Level Estimated
Mon 10:57:00 AM 54.3882 -16.9873 275° West  Level Estimated
Mon 10:58:00 AM 54.3974 -17.1901 274° West  Level Estimated
Mon 10:59:00 AM 54.4061 -17.3931 274° West  Level Estimated
Mon 11:00:00 AM 54.4146 -17.5961 274° West  Level Estimated
Mon 11:01:00 AM 54.4227 -17.7992 274° West  Level Estimated
Mon 11:02:00 AM 54.4304 -18.0023 274° West  Level Estimated
Mon 11:03:00 AM 54.4379 -18.2056 274° West  Level Estimated
Mon 11:04:00 AM 54.4449 -18.4089 274° West  Level Estimated
Mon 11:05:00 AM 54.4517 -18.6123 273° West  Level Estimated
Mon 11:06:00 AM 54.4581 -18.8158 273° West  Level Estimated
Mon 11:07:00 AM 54.4641 -19.0193 273° West  Level Estimated
Mon 11:08:00 AM 54.4698 -19.2229 273° West  Level Estimated
Mon 11:09:00 AM 54.4752 -19.4265 273° West  Level Estimated
Mon 11:10:00 AM 54.4802 -19.6302 273° West  Level Estimated
Mon 11:11:00 AM 54.4849 -19.8339 272° West  Level Estimated
Mon 11:11:00 AM 57.0000 -20.0000 285° West 467 537 43,000  Level ETMS Enhanced Traffic Management System
Mon 11:12:00 AM 54.4893 -20.0377 272° West  Level Estimated
Mon 11:13:00 AM 54.4933 -20.2415 272° West  Level Estimated
Mon 11:14:00 AM 54.4969 -20.4454 272° West  Level Estimated
Mon 11:15:00 AM 54.5002 -20.6493 272° West  Level Estimated
Mon 11:16:00 AM 54.5032 -20.8532 272° West  Level Estimated
Mon 11:17:00 AM 57.1907 -21.3923 284° West 467 537 43,000  Level FlightAware Transoceanic
Mon 11:18:00 AM 57.2210 -21.6257 283° West 467 537 43,000  Level FlightAware Transoceanic
Mon 11:19:00 AM 57.2509 -21.8595 283° West 467 537 43,000  Level FlightAware Transoceanic
Mon 11:20:00 AM 57.2803 -22.0936 283° West 467 537 43,000  Level FlightAware Transoceanic
Mon 11:21:00 AM 57.3092 -22.3282 283° West 467 537 43,000  Level FlightAware Transoceanic
Mon 11:22:00 AM 57.3378 -22.5631 283° West 467 537 43,000  Level FlightAware Transoceanic
Mon 11:23:00 AM 57.3659 -22.7984 282° West 467 537 43,000  Level FlightAware Transoceanic
Mon 11:24:00 AM 57.3935 -23.0340 282° West 467 537 43,000  Level FlightAware Transoceanic
Mon 11:25:00 AM 57.4208 -23.2700 282° West 467 537 43,000  Level FlightAware Transoceanic
Mon 11:26:00 AM 57.4476 -23.5063 282° West 467 537 43,000  Level FlightAware Transoceanic
Mon 11:27:00 AM 57.4739 -23.7430 282° West 467 537 43,000  Level FlightAware Transoceanic
Mon 11:28:00 AM 57.4998 -23.9800 281° West 467 537 43,000  Level FlightAware Transoceanic
Mon 11:29:00 AM 57.5252 -24.2173 281° West 467 537 43,000  Level FlightAware Transoceanic
Mon 11:30:00 AM 57.5502 -24.4550 281° West 467 537 43,000  Level FlightAware Transoceanic
Mon 11:31:00 AM 57.5748 -24.6930 281° West 467 537 43,000  Level FlightAware Transoceanic
Mon 11:32:00 AM 57.5989 -24.9313 281° West 467 537 43,000  Level FlightAware Transoceanic
Mon 11:33:00 AM 57.6226 -25.1700 280° West 467 537 43,000  Level FlightAware Transoceanic
Mon 11:34:00 AM 57.6458 -25.4089 280° West 467 537 43,000  Level FlightAware Transoceanic
Mon 11:35:00 AM 57.6685 -25.6481 280° West 467 537 43,000  Level FlightAware Transoceanic
Mon 11:36:00 AM 57.6908 -25.8877 280° West 467 537 43,000  Level FlightAware Transoceanic
Mon 11:37:00 AM 57.7127 -26.1275 280° West 467 537 43,000  Level FlightAware Transoceanic
Mon 11:38:00 AM 57.7341 -26.3676 279° West 467 537 43,000  Level FlightAware Transoceanic
Mon 11:39:00 AM 57.7550 -26.6080 279° West 467 537 43,000  Level FlightAware Transoceanic
Mon 11:40:00 AM 57.7755 -26.8487 279° West 467 537 43,000  Level FlightAware Transoceanic
Mon 11:41:00 AM 57.7955 -27.0897 279° West 467 537 43,000  Level FlightAware Transoceanic
Mon 11:42:00 AM 57.8151 -27.3309 279° West 467 537 43,000  Level FlightAware Transoceanic
Mon 11:43:00 AM 57.8342 -27.5723 278° West 467 537 43,000  Level FlightAware Transoceanic
Mon 11:44:00 AM 57.8529 -27.8141 278° West 467 537 43,000  Level FlightAware Transoceanic
Mon 11:45:00 AM 57.8711 -28.0560 278° West 467 537 43,000  Level FlightAware Transoceanic
Mon 11:46:00 AM 57.8888 -28.2982 278° West 467 537 43,000  Level FlightAware Transoceanic
Mon 11:47:00 AM 57.9061 -28.5407 278° West 467 537 43,000  Level FlightAware Transoceanic
Mon 11:48:00 AM 57.9229 -28.7834 277° West 467 537 43,000  Level FlightAware Transoceanic
Mon 11:49:00 AM 57.9393 -29.0263 277° West 467 537 43,000  Level FlightAware Transoceanic
Mon 11:50:00 AM 57.9551 -29.2694 277° West 467 537 43,000  Level FlightAware Transoceanic
Mon 11:51:00 AM 57.9706 -29.5127 277° West 467 537 43,000  Level FlightAware Transoceanic
Mon 11:52:00 AM 57.9855 -29.7563 277° West 467 537 43,000  Level FlightAware Transoceanic
Mon 11:53:00 AM 57.9607 -29.9747 258° West  Level Estimated
Mon 11:54:00 AM 57.9356 -30.1928 258° West  Level Estimated
Mon 11:55:00 AM 57.9100 -30.4106 258° West  Level Estimated
Mon 11:56:00 AM 57.8842 -30.6281 257° West  Level Estimated
Mon 11:57:00 AM 57.8579 -30.8453 257° West  Level Estimated
Mon 11:58:00 AM 57.8312 -31.0621 257° West  Level Estimated
Mon 11:59:00 AM 57.8042 -31.2787 257° West  Level Estimated
Mon 12:00:00 PM 57.7769 -31.4949 257° West  Level Estimated
Mon 12:01:00 PM 57.7491 -31.7108 257° West  Level Estimated
Mon 12:02:00 PM 57.7210 -31.9263 256° West  Level Estimated
Mon 12:03:00 PM 57.6925 -32.1415 256° West  Level Estimated
Mon 12:04:00 PM 57.6637 -32.3564 256° West  Level Estimated
Mon 12:05:00 PM 57.6345 -32.5709 256° West  Level Estimated
Mon 12:06:00 PM 57.6049 -32.7851 256° West  Level Estimated
Mon 12:07:00 PM 57.5750 -32.9989 255° West  Level Estimated
Mon 12:08:00 PM 57.5447 -33.2124 255° West  Level Estimated
Mon 12:09:00 PM 57.5140 -33.4255 255° West  Level Estimated
Mon 12:10:00 PM 57.4830 -33.6383 255° West  Level Estimated
Mon 12:11:00 PM 57.4517 -33.8507 255° West  Level Estimated
Mon 12:12:00 PM 57.4199 -34.0627 255° West  Level Estimated
Mon 12:13:00 PM 57.3879 -34.2744 254° West  Level Estimated
Mon 12:14:00 PM 57.3554 -34.4856 254° West  Level Estimated
Mon 12:15:00 PM 57.3227 -34.6966 254° West  Level Estimated
Mon 12:16:00 PM 57.2895 -34.9071 254° West  Level Estimated
Mon 12:17:00 PM 57.2560 -35.1172 254° West  Level Estimated
Mon 12:18:00 PM 57.2222 -35.3270 253° West  Level Estimated
Mon 12:19:00 PM 57.1880 -35.5364 253° West  Level Estimated
Mon 12:20:00 PM 57.1535 -35.7454 253° West  Level Estimated
Mon 12:21:00 PM 57.1186 -35.9540 253° West  Level Estimated
Mon 12:22:00 PM 57.0834 -36.1622 253° West  Level Estimated
Mon 12:23:00 PM 57.0478 -36.3700 253° West  Level Estimated
Mon 12:24:00 PM 57.0119 -36.5774 252° West  Level Estimated
Mon 12:25:00 PM 56.9756 -36.7844 252° West  Level Estimated
Mon 12:26:00 PM 56.9390 -36.9910 252° West  Level Estimated
Mon 12:27:00 PM 56.9021 -37.1972 252° West  Level Estimated
Mon 12:28:00 PM 56.8648 -37.4030 252° West  Level Estimated
Mon 12:29:00 PM 56.8272 -37.6084 252° West  Level Estimated
Mon 12:30:00 PM 56.7892 -37.8134 251° West  Level Estimated
Mon 12:31:00 PM 56.7509 -38.0179 251° West  Level Estimated
Mon 12:32:00 PM 56.7123 -38.2220 251° West  Level Estimated
Mon 12:33:00 PM 56.6734 -38.4258 251° West  Level Estimated
Mon 12:34:00 PM 56.6341 -38.6291 251° West  Level Estimated
Mon 12:35:00 PM 56.5945 -38.8319 251° West  Level Estimated
Mon 12:36:00 PM 56.5545 -39.0343 250° West  Level Estimated
Mon 12:37:00 PM 56.5143 -39.2364 250° West  Level Estimated
Mon 12:38:00 PM 56.4737 -39.4379 250° West  Level Estimated
Mon 12:39:00 PM 56.4327 -39.6391 250° West  Level Estimated
Mon 12:40:00 PM 56.3915 -39.8398 250° West  Level Estimated
Mon 12:41:00 PM 56.3499 -40.0401 250° West  Level Estimated
Mon 12:42:00 PM 56.3080 -40.2399 249° West  Level Estimated
Mon 12:43:00 PM 56.2658 -40.4393 249° West  Level Estimated
Mon 12:44:00 PM 56.2232 -40.6382 249° West  Level Estimated
Mon 12:45:00 PM 56.1804 -40.8367 249° West  Level Estimated
Mon 12:46:00 PM 56.1372 -41.0348 249° West  Level Estimated
Mon 12:47:00 PM 56.0937 -41.2324 249° West  Level Estimated
Mon 12:48:00 PM 56.0499 -41.4296 248° West  Level Estimated
Mon 12:49:00 PM 56.0058 -41.6263 248° West  Level Estimated
Mon 12:50:00 PM 55.9614 -41.8226 248° West  Level Estimated
Mon 12:51:00 PM 55.9166 -42.0184 248° West  Level Estimated
Mon 12:52:00 PM 55.8716 -42.2138 248° West  Level Estimated
Mon 12:53:00 PM 55.8262 -42.4087 248° West  Level Estimated
Mon 12:54:00 PM 55.7805 -42.6031 247° West  Level Estimated
Mon 12:55:00 PM 55.7346 -42.7971 247° West  Level Estimated
Mon 12:56:00 PM 55.6883 -42.9907 247° West  Level Estimated
Mon 12:57:00 PM 55.6417 -43.1838 247° West  Level Estimated
Mon 12:58:00 PM 55.5948 -43.3764 247° West  Level Estimated
Mon 12:59:00 PM 55.5476 -43.5686 247° West  Level Estimated
Mon 01:00:00 PM 55.5002 -43.7603 246° West  Level Estimated
Mon 01:01:00 PM 55.4524 -43.9515 246° West  Level Estimated
Mon 01:02:00 PM 55.4043 -44.1423 246° West  Level Estimated
Mon 01:03:00 PM 55.3559 -44.3326 246° West  Level Estimated
Mon 01:04:00 PM 55.3073 -44.5224 246° West  Level Estimated
Mon 01:05:00 PM 55.2583 -44.7118 246° West  Level Estimated
Mon 01:06:00 PM 55.2090 -44.9007 246° West  Level Estimated
Mon 01:07:00 PM 55.1595 -45.0892 245° Southwest  Level Estimated
Mon 01:08:00 PM 55.1096 -45.2771 245° Southwest  Level Estimated
Mon 01:09:00 PM 55.0595 -45.4646 245° Southwest  Level Estimated
Mon 01:10:00 PM 55.0091 -45.6517 245° Southwest  Level Estimated
Mon 01:11:00 PM 54.9584 -45.8382 245° Southwest  Level Estimated
Mon 01:12:00 PM 54.9074 -46.0243 245° Southwest  Level Estimated
Mon 01:13:00 PM 54.8561 -46.2099 244° Southwest  Level Estimated
Mon 01:14:00 PM 54.8046 -46.3951 244° Southwest  Level Estimated
Mon 01:15:00 PM 54.7527 -46.5797 244° Southwest  Level Estimated
Mon 01:16:00 PM 54.7006 -46.7639 244° Southwest  Level Estimated
Mon 01:17:00 PM 54.6482 -46.9477 244° Southwest  Level Estimated
Mon 01:18:00 PM 54.5956 -47.1309 244° Southwest  Level Estimated
Mon 01:19:00 PM 54.5426 -47.3137 244° Southwest  Level Estimated
Mon 01:20:00 PM 54.4894 -47.4960 243° Southwest  Level Estimated
Mon 01:21:00 PM 54.4359 -47.6778 243° Southwest  Level Estimated
Mon 01:22:00 PM 54.3821 -47.8592 243° Southwest  Level Estimated
Mon 01:23:00 PM 54.3281 -48.0400 243° Southwest  Level Estimated
Mon 01:24:00 PM 54.2738 -48.2204 243° Southwest  Level Estimated
Mon 01:25:00 PM 54.2192 -48.4004 243° Southwest  Level Estimated
Mon 01:26:00 PM 54.1644 -48.5798 242° Southwest  Level Estimated
Mon 01:27:00 PM 54.1093 -48.7588 242° Southwest  Level Estimated
Mon 01:28:00 PM 54.0539 -48.9373 242° Southwest  Level Estimated
Mon 01:29:00 PM 53.9982 -49.1153 242° Southwest  Level Estimated
Mon 01:30:00 PM 53.9423 -49.2928 242° Southwest  Level Estimated
Mon 01:31:00 PM 53.8862 -49.4699 242° Southwest  Level Estimated
Mon 01:32:00 PM 53.8298 -49.6465 242° Southwest  Level Estimated
Mon 01:33:00 PM 53.7731 -49.8226 241° Southwest  Level Estimated
Mon 01:34:00 PM 53.7161 -49.9982 241° Southwest  Level Estimated
Mon 01:35:00 PM 53.6590 -50.1734 241° Southwest  Level Estimated
Mon 01:36:00 PM 53.6015 -50.3481 241° Southwest  Level Estimated
Mon 01:37:00 PM 53.5438 -50.5223 241° Southwest  Level Estimated
Mon 01:38:00 PM 53.4859 -50.6960 241° Southwest  Level Estimated
Mon 01:39:00 PM 53.4277 -50.8693 241° Southwest  Level Estimated
Mon 01:40:00 PM 53.3692 -51.0420 240° Southwest  Level Estimated
Mon 01:41:00 PM 53.3105 -51.2144 240° Southwest  Level Estimated
Mon 01:42:00 PM 53.2516 -51.3862 240° Southwest  Level Estimated
Mon 01:42:01 PM 55.0500 -54.1833 240° Southwest 450 518 43,000  Level Moncton Center
Mon 01:43:00 PM 53.1924 -51.5576 240° Southwest  Level Estimated
Mon 01:43:01 PM 55.0000 -54.3667 245° Southwest 440 506 43,000  Level Moncton Center
Mon 01:44:00 PM 53.1329 -51.7285 240° Southwest  Level Estimated
Mon 01:44:01 PM 54.9500 -54.5500 245° Southwest 440 506 43,000  Level Moncton Center
Mon 01:45:00 PM 53.0732 -51.8989 240° Southwest  Level Estimated
Mon 01:45:01 PM 54.8833 -54.7333 238° Southwest 440 506 43,000  Level Moncton Center
Mon 01:46:00 PM 53.0133 -52.0688 240° Southwest  Level Estimated
Mon 01:46:01 PM 54.8333 -54.9500 248° West 440 506 43,000  Level Moncton Center
Mon 01:47:00 PM 52.9531 -52.2383 240° Southwest  Level Estimated
Mon 01:47:01 PM 54.7833 -55.1500 247° West 440 506 43,000  Level Moncton Center
Mon 01:48:01 PM 54.7333 -55.3500 247° West 450 518 43,000  Level Moncton Center
Mon 01:49:01 PM 54.6833 -55.5500 247° West 450 518 43,000  Level Moncton Center
Mon 01:50:01 PM 54.6333 -55.7333 245° Southwest 450 518 43,000  Level Moncton Center
Mon 01:51:01 PM 54.5667 -55.9167 238° Southwest 450 518 43,000  Level Moncton Center
Mon 01:52:01 PM 54.4833 -56.0833 229° Southwest 440 506 43,000  Level Moncton Center
Mon 01:53:01 PM 54.4167 -56.2333 233° Southwest 440 506 43,000  Level Moncton Center
Mon 01:54:01 PM 54.3333 -56.3667 223° Southwest 440 506 43,000  Level Moncton Center
Mon 01:55:01 PM 54.2500 -56.5500 232° Southwest 440 506 43,000  Level Moncton Center
Mon 01:56:01 PM 54.1667 -56.6833 223° Southwest 440 506 43,000  Level Moncton Center
Mon 01:57:01 PM 54.0833 -56.8667 232° Southwest 440 506 43,000  Level Moncton Center
Mon 01:58:01 PM 54.0000 -57.0000 223° Southwest 440 506 43,000  Level Moncton Center
Mon 01:59:01 PM 53.9167 -57.1833 232° Southwest 440 506 43,000  Level Moncton Center
Mon 02:00:01 PM 53.8333 -57.3167 223° Southwest 440 506 43,000  Level Moncton Center
Mon 02:01:01 PM 53.7667 -57.4667 233° Southwest 440 506 43,000  Level Moncton Center
Mon 02:02:01 PM 53.6667 -57.6167 222° Southwest 440 506 43,000  Level Moncton Center
Mon 02:03:01 PM 53.6000 -57.7667 233° Southwest 440 506 43,000  Level Moncton Center
Mon 02:04:01 PM 53.5167 -57.9333 230° Southwest 430 495 43,000  Level Moncton Center
Mon 02:05:01 PM 53.4333 -58.0833 227° Southwest 430 495 43,000  Level Moncton Center
Mon 02:06:01 PM 53.3500 -58.2333 227° Southwest 440 506 43,000  Level Moncton Center
Mon 02:07:01 PM 53.2833 -58.3833 233° Southwest 440 506 43,000  Level Moncton Center
Mon 02:08:01 PM 53.2000 -58.5333 227° Southwest 430 495 43,000  Level Moncton Center
Mon 02:09:01 PM 53.1000 -58.6833 222° Southwest 430 495 43,000  Level Moncton Center
Mon 02:10:01 PM 53.0333 -58.8333 234° Southwest 440 506 43,000  Level Moncton Center
Mon 02:11:01 PM 52.9333 -58.9833 222° Southwest 440 506 43,000  Level Moncton Center
Mon 02:12:01 PM 52.8500 -59.1333 227° Southwest 440 506 43,000  Level Moncton Center
Mon 02:13:01 PM 52.7833 -59.2500 227° Southwest 430 495 43,000  Level Moncton Center
Mon 02:14:01 PM 52.6833 -59.4333 228° Southwest 430 495 43,000  Level Moncton Center
Mon 02:15:01 PM 52.6000 -59.5500 220° Southwest 440 506 43,000  Level Moncton Center
Mon 02:16:01 PM 52.5333 -59.7000 234° Southwest 440 506 43,000  Level Moncton Center
Mon 02:17:01 PM 52.4333 -59.8333 219° Southwest 430 495 43,000  Level Moncton Center
Mon 02:18:01 PM 52.3500 -59.9833 228° Southwest 430 495 43,000  Level Moncton Center
Mon 02:19:01 PM 52.2833 -60.1333 234° Southwest 430 495 43,000  Level Moncton Center
Mon 02:20:01 PM 52.1833 -60.2833 223° Southwest 440 506 43,000  Level Moncton Center
Mon 02:21:01 PM 52.1000 -60.4167 225° Southwest 440 506 43,000  Level Moncton Center
Mon 02:22:01 PM 52.0000 -60.5667 223° Southwest 440 506 43,000  Level Moncton Center
Mon 02:23:01 PM 51.9333 -60.7000 231° Southwest 440 506 43,000  Level Moncton Center
Mon 02:24:01 PM 51.8500 -60.8500 228° Southwest 440 506 43,000  Level Moncton Center
Mon 02:25:01 PM 51.7500 -60.9833 220° Southwest 440 506 43,000  Level Moncton Center
Mon 02:26:01 PM 51.6667 -61.1333 228° Southwest 440 506 43,000  Level Moncton Center
Mon 02:27:01 PM 51.5833 -61.2667 225° Southwest 450 518 43,000  Level Moncton Center
Mon 02:28:01 PM 51.5000 -61.4167 228° Southwest 450 518 43,000  Level Moncton Center
Mon 02:29:01 PM 51.4000 -61.5500 220° Southwest 440 506 43,000  Level Moncton Center
Mon 02:30:01 PM 51.3167 -61.7000 228° Southwest 440 506 43,000  Level Moncton Center
Mon 02:31:01 PM 51.2333 -61.8333 225° Southwest 440 506 43,000  Level Moncton Center
Mon 02:32:01 PM 51.1500 -61.9667 225° Southwest 440 506 43,000  Level Moncton Center
Mon 02:33:01 PM 51.0667 -62.1000 225° Southwest 450 518 43,000  Level Moncton Center
Mon 02:34:01 PM 50.9667 -62.2667 226° Southwest 450 518 43,000  Level Moncton Center
Mon 02:35:01 PM 50.8833 -62.4000 225° Southwest 450 518 43,000  Level Moncton Center
Mon 02:36:01 PM 50.7833 -62.5500 224° Southwest 450 518 43,000  Level Moncton Center
Mon 02:37:01 PM 50.7000 -62.6833 225° Southwest 460 529 43,000  Level Moncton Center
Mon 02:38:01 PM 50.6000 -62.8167 220° Southwest 460 529 43,000  Level Moncton Center
Mon 02:39:01 PM 50.5167 -62.9500 226° Southwest 450 518 43,000  Level Moncton Center
Mon 02:40:01 PM 50.4167 -63.0833 220° Southwest 460 529 43,000  Level Moncton Center
Mon 02:41:01 PM 50.3333 -63.2167 226° Southwest 460 529 43,000  Level Moncton Center
Mon 02:42:01 PM 50.2333 -63.3833 227° Southwest 450 518 43,000  Level Moncton Center
Mon 02:43:01 PM 50.1500 -63.4833 218° Southwest 450 518 43,000  Level Moncton Center
Mon 02:44:01 PM 50.0500 -63.6333 224° Southwest 450 518 43,000  Level Moncton Center
Mon 02:45:01 PM 49.9500 -63.7667 221° Southwest 450 518 43,000  Level Moncton Center
Mon 02:46:01 PM 49.8833 -63.9000 232° Southwest 450 518 43,000  Level Moncton Center
Mon 02:47:01 PM 49.7833 -64.0333 221° Southwest 460 529 43,000  Level Moncton Center
Mon 02:48:01 PM 49.7000 -64.1667 226° Southwest 460 529 43,000  Level Moncton Center
Mon 02:49:01 PM 49.5833 -64.3167 220° Southwest 450 518 43,000  Level Moncton Center
Mon 02:50:01 PM 49.5000 -64.4167 218° Southwest 450 518 43,000  Level Moncton Center
Mon 02:51:01 PM 49.4000 -64.5833 227° Southwest 460 529 43,000  Level Moncton Center
Mon 02:52:01 PM 49.3000 -64.7000 217° Southwest 460 529 43,000  Level Moncton Center
Mon 02:53:01 PM 49.2000 -64.8333 221° Southwest 460 529 43,000  Level Moncton Center
Mon 02:54:01 PM 49.1167 -64.9667 226° Southwest 460 529 43,000  Level Moncton Center
Mon 02:55:01 PM 49.0333 -65.0833 223° Southwest 460 529 43,000  Level Moncton Center
Mon 02:56:01 PM 48.9333 -65.2333 225° Southwest 450 518 43,000  Level Moncton Center
Mon 02:57:01 PM 48.8333 -65.3667 221° Southwest 450 518 43,000  Level Moncton Center
Mon 02:58:01 PM 48.7500 -65.4833 223° Southwest 450 518 43,000  Level Moncton Center
Mon 02:59:01 PM 48.6500 -65.6167 221° Southwest 460 529 43,000  Level Moncton Center
Mon 03:00:01 PM 48.5500 -65.7333 218° Southwest 450 518 43,000  Level Moncton Center
Mon 03:01:01 PM 48.4667 -65.8667 227° Southwest 460 529 43,000  Level Moncton Center
Mon 03:02:01 PM 48.3833 -65.9833 223° Southwest 450 518 43,000  Level Moncton Center
Mon 03:03:01 PM 48.2667 -66.1000 214° Southwest 450 518 43,000  Level Moncton Center
Mon 03:04:01 PM 48.1667 -66.2500 225° Southwest 470 541 43,000  Level Moncton Center
Mon 03:05:01 PM 48.0833 -66.3833 227° Southwest 460 529 43,000  Level Moncton Center
Mon 03:06:01 PM 47.9833 -66.5000 218° Southwest 460 529 43,000  Level Moncton Center
Mon 03:07:01 PM 47.8833 -66.6167 218° Southwest 460 529 43,000  Level Moncton Center
Mon 03:08:01 PM 47.7833 -66.7667 225° Southwest 470 541 43,000  Level Moncton Center
Mon 03:09:01 PM 47.6833 -66.8833 218° Southwest 470 541 43,000  Level Moncton Center
Mon 03:10:01 PM 47.5833 -67.0000 218° Southwest 460 529 43,000  Level Moncton Center
Mon 03:11:01 PM 47.4833 -67.1167 218° Southwest 470 541 43,000  Level Moncton Center
Mon 03:12:01 PM 47.4000 -67.2667 231° Southwest 460 529 43,000  Level Moncton Center
Mon 03:13:01 PM 47.2833 -67.3833 214° Southwest 480 552 43,000  Level Moncton Center
Mon 03:14:05 PM 47.1958 -67.5042 223° Southwest 474 545 43,000  Level Boston Center
Mon 03:15:01 PM 47.0833 -67.6167 214° Southwest 470 541 43,000  Level Moncton Center
Mon 03:16:01 PM 46.9833 -67.7333 219° Southwest 470 541 43,000  Level Moncton Center
Mon 03:17:01 PM 46.8833 -67.8667 222° Southwest 470 541 43,000  Level Moncton Center
Mon 03:18:01 PM 46.7833 -67.9833 219° Southwest 460 529 43,000  Level Moncton Center
Mon 03:19:01 PM 46.6833 -68.1000 219° Southwest 460 529 43,000  Level Moncton Center
Mon 03:20:01 PM 46.5833 -68.2167 219° Southwest 470 541 43,000  Level Moncton Center
Mon 03:21:01 PM 46.4833 -68.3333 219° Southwest 480 552 43,000  Level Moncton Center
Mon 03:22:05 PM 46.3950 -68.4569 224° Southwest 480 552 43,000  Level Boston Center
Mon 03:23:04 PM 46.2806 -68.5883 218° Southwest 480 552 43,000  Level Boston Center
Mon 03:24:04 PM 46.1883 -68.6936 218° Southwest 480 552 43,000  Level Boston Center
Mon 03:25:05 PM 46.0714 -68.8208 217° Southwest 485 558 43,000  Level Boston Center
Mon 03:26:03 PM 45.9689 -68.9381 218° Southwest 485 558 43,000  Level Boston Center
Mon 03:27:03 PM 45.8639 -69.0578 218° Southwest 485 558 43,000  Level Boston Center
Mon 03:28:05 PM 45.7611 -69.1769 219° Southwest 485 558 43,000  Level Boston Center
Mon 03:29:05 PM 45.6581 -69.2897 217° Southwest 480 552 43,000  Level Boston Center
Mon 03:30:05 PM 45.5550 -69.4081 219° Southwest 485 558 43,000  Level Boston Center
Mon 03:31:03 PM 45.4697 -69.5014 218° Southwest 485 558 43,000  Level Boston Center
Mon 03:32:03 PM 45.3461 -69.6375 218° Southwest 485 558 43,000  Level Boston Center
Mon 03:33:04 PM 45.2425 -69.7517 218° Southwest 485 558 43,000  Level Boston Center
Mon 03:34:04 PM 45.1408 -69.8622 218° Southwest 485 558 43,000  Level Boston Center
Mon 03:35:16 PM 45.0372 -69.9756 218° Southwest 480 552 43,000  Level Boston Center
Mon 03:36:17 PM 44.9147 -70.1039 217° Southwest 480 552 43,000  Level Boston Center
Mon 03:37:15 PM 44.8211 -70.2072 218° Southwest 475 547 43,000  Level Boston Center
Mon 03:38:16 PM 44.7292 -70.3069 218° Southwest 475 547 43,000 -298 Level Boston Center
Mon 03:39:16 PM 44.6044 -70.4369 217° Southwest 475 547 42,400 -1,289 Descending Boston Center
Mon 03:40:17 PM 44.5000 -70.5483 217° Southwest 475 547 40,400 -2,067 Descending Boston Center
Mon 03:41:15 PM 44.3956 -70.6561 216° Southwest 475 547 38,300 -2,118 Descending Boston Center
Mon 03:42:16 PM 44.2908 -70.7694 218° Southwest 475 547 36,200 -2,132 Descending Boston Center
Mon 03:43:16 PM 44.1861 -70.8797 217° Southwest 475 547 34,000 -2,132 Descending Boston Center
Mon 03:44:17 PM 44.0792 -70.9894 216° Southwest 475 547 31,900 -2,083 Descending Boston Center
Mon 03:45:17 PM 43.9722 -71.1017 217° Southwest 480 552 29,800 -2,150 Descending Boston Center
Mon 03:46:17 PM 43.8631 -71.2106 216° Southwest 486 559 27,600 -2,136 Descending Boston Center
Mon 03:47:15 PM 43.7600 -71.3161 217° Southwest 486 559 25,600 -2,017 Descending Boston Center
Mon 03:48:16 PM 43.6836 -71.3981 218° Southwest 464 534 23,600 -2,311 Descending Boston Center
Mon 03:49:17 PM 43.5742 -71.5086 216° Southwest 459 528 20,900 -2,319 Descending Boston Center
Mon 03:50:15 PM 43.4811 -71.6075 218° Southwest 439 505 19,000 -958 Descending Boston Center
Mon 03:51:16 PM 43.3756 -71.7117 216° Southwest 434 499 19,000  Level Boston Center
Mon 03:52:16 PM 43.2947 -71.7925 216° Southwest 427 491 19,000  Level Boston Center
Mon 03:53:16 PM 43.1911 -71.8989 217° Southwest 427 491 19,000  Level Boston Center
Mon 03:54:17 PM 43.1061 -71.9822 216° Southwest 427 491 19,000 -689 Level Boston Center
Mon 03:55:18 PM 43.0042 -72.0881 217° Southwest 432 497 17,600 -1,462 Descending Boston Center
Mon 03:56:16 PM 42.9211 -72.1650 214° Southwest 420 483 16,100 -1,576 Descending Boston Center
Mon 03:57:16 PM 42.8211 -72.2647 216° Southwest 409 471 14,500 -1,438 Descending Boston Center
Mon 03:58:17 PM 42.7381 -72.3214 207° Southwest 398 458 13,200 -1,426 Descending Boston Center
Mon 03:59:18 PM 42.6172 -72.3808 200° South 379 436 11,600 -1,525 Descending Boston Center
Mon 04:00:15 PM 42.5381 -72.4175 199° South 382 440 10,200 -821 Descending Boston Center
Mon 04:01:15 PM 42.4400 -72.4625 199° South 382 440 10,000 -51 Descending Boston Center
Mon 04:02:13 PM 42.3317 -72.5158 200° South 372 428 10,100 -198 Climbing Boston Center
Mon 04:03:16 PM 42.2419 -72.5550 198° South 365 420 9,600 -871 Descending Boston Center
Mon 04:04:17 PM 42.1564 -72.5408 173° South 303 349 8,300 -1,412 Descending Boston Center
Mon 04:05:15 PM 42.0794 -72.5128 165° South 301 346 6,800 -1,565 Descending Boston Center
Mon 04:06:12 PM 42.0064 -72.4903 167° South 288 331 5,300 -950 Descending Boston Center
Mon 04:07:15 PM 41.9378 -72.4681 166° South 262 302 4,900 -726 Descending Boston Center
Mon 04:08:16 PM 41.8939 -72.4542 167° South 204 235 3,800 -1,169 Descending Boston Center
Mon 04:09:13 PM 41.8503 -72.4819 205° Southwest 162 186 2,600 -610 Descending Boston Center
Mon 04:10:14 PM 41.8544 -72.5406 275° West 176 203 2,600 -194 Level Boston Center
Mon 04:11:17 PM 41.8750 -72.6047 293° West 164 189 2,200 -694 Descending Boston Center
Mon 04:12:15 PM 41.9000 -72.6408 313° West 150 173 1,200 -871 Descending Boston Center
Mon 04:13:21 PM 41.9228 -72.6772 310° West 117 135 400 -496 Descending Boston Center
Mon 04:14:16 PM 41.9458 -72.7053 318° Northwest 132 152 200 -218 Descending Boston Center

Login

Don't have an account? Register now (free) for customized features, flight alerts, and more!